createdAt,value
2022-12-16T00:02:31.095Z,78.3
2022-12-16T00:08:08.121Z,78.1
2022-12-16T00:13:43.430Z,77.7
2022-12-16T00:19:18.490Z,77.2
2022-12-16T00:24:53.920Z,76.7
2022-12-16T00:30:30.413Z,77
2022-12-16T00:36:05.401Z,77.3
2022-12-16T00:41:40.241Z,77.8
2022-12-16T00:47:44.012Z,77.8
2022-12-16T00:53:16.797Z,77.8
2022-12-16T00:58:51.998Z,78
2022-12-16T01:04:29.204Z,78.1
2022-12-16T01:10:04.365Z,78.2
2022-12-16T01:15:40.802Z,78.4
2022-12-16T01:21:16.613Z,78.5
2022-12-16T01:26:51.531Z,78.5
2022-12-16T01:32:28.400Z,78.4
2022-12-16T01:38:06.309Z,78.3
2022-12-16T01:43:43.023Z,78.1
2022-12-16T01:49:40.166Z,78.2
2022-12-16T01:55:12.801Z,78.2
2022-12-16T02:00:48.056Z,78
2022-12-16T02:06:24.567Z,77.7
2022-12-16T02:11:59.377Z,77.7
2022-12-16T02:17:33.966Z,77.6
2022-12-16T02:23:09.319Z,77.7
2022-12-16T02:28:44.391Z,77.6
2022-12-16T02:34:19.585Z,77.3
2022-12-16T02:39:55.385Z,77.2
2022-12-16T02:45:30.585Z,76.8
2022-12-16T02:51:06.268Z,76.7
2022-12-16T02:56:41.440Z,76.6
2022-12-16T03:02:17.440Z,76.5
2022-12-16T03:07:54.595Z,76.5
2022-12-16T03:13:30.585Z,76.5
2022-12-16T03:19:10.063Z,76.4
2022-12-16T03:24:46.084Z,76.4
2022-12-16T03:30:21.980Z,76.8
2022-12-16T03:35:57.114Z,77.1
2022-12-16T03:41:33.202Z,76.4
2022-12-16T03:47:38.530Z,75.9
2022-12-16T03:53:11.480Z,75.6
2022-12-16T03:58:47.155Z,75.7
2022-12-16T04:04:22.220Z,76.7
2022-12-16T04:09:57.969Z,77.1
2022-12-16T04:15:34.518Z,77.3
2022-12-16T04:21:11.395Z,77.7
2022-12-16T04:26:46.343Z,77.9
2022-12-16T04:32:21.984Z,78
2022-12-16T04:37:57.581Z,78.3
2022-12-16T04:43:34.547Z,78.4
2022-12-16T04:49:32.816Z,78.1
2022-12-16T04:55:06.109Z,78.1
2022-12-16T05:00:41.486Z,78.2
2022-12-16T05:06:17.034Z,78.3
2022-12-16T05:11:52.195Z,78.6
2022-12-16T05:17:28.580Z,78.5
2022-12-16T05:23:03.379Z,78.4
2022-12-16T05:28:38.160Z,78.6
2022-12-16T05:34:13.223Z,78.8
2022-12-16T05:39:48.588Z,78.8
2022-12-16T05:45:23.334Z,78.8
2022-12-16T05:50:59.503Z,78.8
2022-12-16T05:56:34.434Z,78.8
2022-12-16T06:02:10.248Z,77.6
2022-12-16T06:07:47.524Z,76.8
2022-12-16T06:13:22.643Z,76.7
2022-12-16T06:19:18.438Z,77.1
2022-12-16T06:25:01.855Z,76.9
2022-12-16T06:30:37.075Z,77.2
2022-12-16T06:36:12.384Z,77.7
2022-12-16T06:41:48.247Z,78.1
2022-12-16T06:47:45.097Z,78.4
2022-12-16T06:53:17.673Z,78.5
2022-12-16T06:58:52.921Z,78.8
2022-12-16T07:04:28.077Z,78.4
2022-12-16T07:10:03.628Z,78.4
2022-12-16T07:15:39.671Z,81.6
2022-12-16T07:21:14.539Z,84.4
2022-12-16T07:26:50.350Z,86.2
2022-12-16T07:32:25.791Z,86.2
2022-12-16T07:38:00.927Z,86.6
2022-12-16T07:43:37.218Z,87.2
2022-12-16T07:49:14.946Z,87.2
2022-12-16T07:54:51.327Z,87.5
2022-12-16T08:00:30.452Z,87.6
2022-12-16T08:06:06.516Z,88.1
2022-12-16T08:11:41.951Z,88.8
2022-12-16T08:17:18.715Z,88.5
2022-12-16T08:22:57.541Z,88.7
2022-12-16T08:28:32.411Z,89
2022-12-16T08:34:08.293Z,89
2022-12-16T08:39:44.998Z,88.2
2022-12-16T08:46:13.767Z,88.1
2022-12-16T08:51:51.480Z,87.9
2022-12-16T08:57:27.527Z,87.4
2022-12-16T09:03:09.866Z,87.1
2022-12-16T09:08:47.898Z,86.2
2022-12-16T09:14:23.985Z,85.9
2022-12-16T09:20:20.645Z,86.9
2022-12-16T09:25:56.372Z,87.5
2022-12-16T09:31:32.955Z,86.6
2022-12-16T09:37:09.314Z,86.6
2022-12-16T09:42:44.695Z,86.4
2022-12-16T09:48:21.447Z,86.5
2022-12-16T09:53:57.217Z,86.3
2022-12-16T09:59:32.144Z,86.5
2022-12-16T10:05:09.078Z,87.6
2022-12-16T10:10:43.936Z,88.1
2022-12-16T10:16:20.807Z,89.4
2022-12-16T10:21:57.644Z,87.5
2022-12-16T10:27:32.703Z,87.9
2022-12-16T10:33:08.373Z,88.2
2022-12-16T10:38:44.669Z,88
2022-12-16T10:44:20.041Z,87.5
2022-12-16T10:49:56.867Z,87.7
2022-12-16T10:55:32.929Z,88.8
2022-12-16T11:01:08.361Z,88.1
2022-12-16T11:06:44.483Z,86.9
2022-12-16T11:12:20.245Z,87
2022-12-16T11:17:56.610Z,86.8
2022-12-16T11:23:32.919Z,86.1
2022-12-16T11:29:11.917Z,85.4
2022-12-16T11:34:47.024Z,86.6
2022-12-16T11:40:22.419Z,85.6
2022-12-16T11:45:58.822Z,85.4
2022-12-16T11:51:35.258Z,86.2
2022-12-16T11:57:10.410Z,86
2022-12-16T12:02:46.541Z,84.8
2022-12-16T12:08:23.191Z,86.9
2022-12-16T12:13:58.392Z,86.3
2022-12-16T12:19:43.928Z,88
2022-12-16T12:25:19.976Z,88.3
2022-12-16T12:30:55.850Z,87.1
2022-12-16T12:36:38.209Z,88.7
2022-12-16T12:42:13.833Z,88.3
2022-12-16T12:47:49.011Z,88.2
2022-12-16T12:53:33.986Z,88.3
2022-12-16T12:59:15.283Z,87.2
2022-12-16T13:04:51.725Z,87.8
2022-12-16T13:10:30.838Z,87.3
2022-12-16T13:16:07.252Z,87.8
2022-12-16T13:21:44.749Z,87.8
2022-12-16T13:27:20.320Z,88.1
2022-12-16T13:32:55.299Z,89.2
2022-12-16T13:38:31.269Z,88.6
2022-12-16T13:44:06.387Z,88.7
2022-12-16T13:49:41.861Z,88
2022-12-16T13:55:25.355Z,89
2022-12-16T14:01:02.070Z,89.1
2022-12-16T14:06:37.576Z,89.2
2022-12-16T14:12:34.382Z,89.9
2022-12-16T14:18:18.422Z,89.9
2022-12-16T14:24:31.137Z,90.1
2022-12-16T14:30:49.781Z,89.5
2022-12-16T14:36:26.349Z,89.1
2022-12-16T14:42:02.340Z,89.3
2022-12-16T14:47:46.131Z,88.7
2022-12-16T14:53:21.519Z,88.3
2022-12-16T14:58:56.821Z,88.5
2022-12-16T15:04:32.596Z,88.5
2022-12-16T15:10:09.782Z,88.2
2022-12-16T15:15:45.356Z,88
2022-12-16T15:21:21.725Z,87.8
2022-12-16T15:26:57.518Z,88.1
2022-12-16T15:32:57.738Z,88.9
2022-12-16T15:38:43.240Z,86.3
2022-12-16T15:44:21.119Z,86.7
2022-12-16T15:50:04.603Z,86.9
2022-12-16T15:55:40.561Z,88.1
2022-12-16T16:01:16.101Z,88.3
2022-12-16T16:06:51.921Z,88.2
2022-12-16T16:12:27.174Z,88
2022-12-16T16:18:05.049Z,88.2
2022-12-16T16:23:40.631Z,88.8
2022-12-16T16:30:00.777Z,89.1
2022-12-16T16:35:42.985Z,89.4
2022-12-16T16:41:18.304Z,89.2
2022-12-16T16:47:15.180Z,89
2022-12-16T16:52:48.760Z,89
2022-12-16T16:58:23.651Z,89.8
2022-12-16T17:04:02.702Z,88.8
2022-12-16T17:09:43.945Z,89.5
2022-12-16T17:15:19.202Z,89.1
2022-12-16T17:20:54.002Z,89.2
2022-12-16T17:26:32.760Z,89.6
2022-12-16T17:32:09.210Z,89
2022-12-16T17:37:52.982Z,89.5
2022-12-16T17:43:29.188Z,89
2022-12-16T17:49:29.821Z,88.1
2022-12-16T17:55:02.877Z,85.9
2022-12-16T18:00:38.605Z,85.1
2022-12-16T18:06:13.763Z,84.4
2022-12-16T18:11:49.037Z,84.1
2022-12-16T18:17:46.167Z,83.7
2022-12-16T18:23:22.531Z,83.5
2022-12-16T18:28:57.404Z,83.4
2022-12-16T18:34:32.668Z,83
2022-12-16T18:40:17.478Z,82.6
2022-12-16T18:45:54.177Z,82.5
2022-12-16T18:51:30.777Z,82.5
2022-12-16T18:57:06.243Z,82.2
2022-12-16T19:02:41.845Z,82.1
2022-12-16T19:08:18.999Z,82
2022-12-16T19:13:54.060Z,81.7
2022-12-16T19:19:29.211Z,81.5
2022-12-16T19:25:04.443Z,81.2
2022-12-16T19:30:41.098Z,81.1
2022-12-16T19:36:16.405Z,80.5
2022-12-16T19:41:53.989Z,80.8
2022-12-16T19:47:32.198Z,80.6
2022-12-16T19:53:08.031Z,80.3
2022-12-16T19:58:45.291Z,80.4
2022-12-16T20:04:20.481Z,80.2
2022-12-16T20:09:56.554Z,79.9
2022-12-16T20:15:32.331Z,80.1
2022-12-16T20:21:07.539Z,80.1
2022-12-16T20:26:44.216Z,80
2022-12-16T20:32:19.403Z,80.1
2022-12-16T20:37:56.653Z,80
2022-12-16T20:43:31.511Z,80
2022-12-16T20:49:07.171Z,79.9
2022-12-16T20:54:44.288Z,79.8
2022-12-16T21:00:19.548Z,79.9
2022-12-16T21:06:12.722Z,80
2022-12-16T21:11:56.799Z,80
2022-12-16T21:17:32.050Z,79.9
2022-12-16T21:23:08.540Z,79.9
2022-12-16T21:28:45.045Z,79.8
2022-12-16T21:34:20.529Z,79.9
2022-12-16T21:39:56.585Z,79.8
2022-12-16T21:45:31.949Z,79.7
2022-12-16T21:51:07.223Z,79.7
2022-12-16T21:56:42.778Z,79.7
2022-12-16T22:02:18.140Z,79.6
2022-12-16T22:07:56.405Z,79.6
2022-12-16T22:13:31.572Z,79.7
2022-12-16T22:19:06.919Z,79.7
2022-12-16T22:24:42.209Z,79.7
2022-12-16T22:30:17.807Z,79.7
2022-12-16T22:35:55.813Z,79.8
2022-12-16T22:41:30.904Z,79.8
2022-12-16T22:47:28.931Z,79.7
2022-12-16T22:53:03.056Z,79.7
2022-12-16T22:58:39.299Z,79.8
2022-12-16T23:04:15.051Z,79.8
2022-12-16T23:09:50.842Z,79.9
2022-12-16T23:15:31.083Z,79.9
2022-12-16T23:21:07.571Z,79.9
2022-12-16T23:26:45.488Z,79.9
2022-12-16T23:32:20.394Z,79.9
2022-12-16T23:37:56.417Z,80
2022-12-16T23:43:31.891Z,79.8
2022-12-16T23:49:29.155Z,79.7
2022-12-16T23:55:01.919Z,79.6
